Zenith Leader — 2ACU6 — position and weather

sailwx.info

Track history (hours):
 
Tides and Currents Weather Stations Pressure Air Temp Water Temp Dewpoint Dewpoint Depression Visibility Wind Speed Wind Dir Waves Ship Positions

Zenith Leader

Last reported at 2014-Oct-20 09:15 UTC. Time now 2014-Oct-23 05:57 UTC.
Position N 35°01' E 139°42'.

; draft 8.9 m.

Type: Cargo ship. MMSI: 235058697.

Date/timePositionNaut miles runAvg speedWind from/ knotsBaromVisibWave heightAir tempDewpointWater temp
2014-Oct-20 09:15N 35°01' E 139°42'1115.0
2014-Oct-20 08:33N 35°11' E 139°46'1211.6
2014-Oct-20 07:33N 35°22' E 139°42'6 6.0
2014-Oct-20 06:31N 35°28' E 139°41'0 0.0
2014-Oct-20 05:31N 35°28' E 139°41'0 0.0
2014-Oct-20 04:31N 35°28' E 139°41'0 0.0
2014-Oct-20 03:31N 35°28' E 139°41'0 0.0
2014-Oct-20 02:31N 35°28' E 139°41'0 0.0
2014-Oct-20 01:31N 35°28' E 139°41'0 0.0
2014-Oct-20 00:31N 35°28' E 139°41'0 0.0
2014-Oct-19 23:31N 35°28' E 139°41'0 0.0
2014-Oct-19 22:28N 35°28' E 139°41'1 1.6
2014-Oct-19 21:33N 35°27' E 139°43'9 8.6
2014-Oct-19 20:33N 35°19' E 139°44'1110.5
2014-Oct-19 19:34N 35°08' E 139°45'10 9.8
2014-Oct-19 18:33N 34°59' E 139°42'  
2014-Oct-11 06:29N 35°01' E 139°40'1212.6
2014-Oct-11 05:33N 35°12' E 139°46'1212.2
2014-Oct-11 04:33N 35°23' E 139°42'5 4.7
2014-Oct-11 03:31N 35°28' E 139°41'0 0.0
2014-Oct-11 02:31N 35°28' E 139°41'0 0.0
2014-Oct-11 01:31N 35°28' E 139°41'0 0.0
2014-Oct-11 00:31N 35°28' E 139°41'0 0.0
2014-Oct-10 23:31N 35°28' E 139°41'0 0.2
2014-Oct-10 22:33N 35°28' E 139°41'7 6.8
2014-Oct-10 21:33N 35°22' E 139°45'1211.8
2014-Oct-10 20:33N 35°11' E 139°46'1312.7
2014-Oct-10 19:33N 34°59' E 139°42'  
Track history (hours):
 
Tides and Currents Weather Stations Pressure Air Temp Water Temp Dewpoint Dewpoint Depression Visibility Wind Speed Wind Dir Waves Ship Positions

Zenith Leader

Last reported at 2014-Oct-20 09:15 UTC. Time now 2014-Oct-23 05:57 UTC.
Position N 35°01' E 139°42'.

; draft 8.9 m.

Type: Cargo ship. MMSI: 235058697.

Date/timePositionNaut miles runAvg speedWind from/ knotsBaromVisibWave heightAir tempDewpointWater temp
2014-Oct-20 09:15N 35°01' E 139°42'1115.0
2014-Oct-20 08:33N 35°11' E 139°46'1211.6
2014-Oct-20 07:33N 35°22' E 139°42'6 6.0
2014-Oct-20 06:31N 35°28' E 139°41'0 0.0
2014-Oct-20 05:31N 35°28' E 139°41'0 0.0
2014-Oct-20 04:31N 35°28' E 139°41'0 0.0
2014-Oct-20 03:31N 35°28' E 139°41'0 0.0
2014-Oct-20 02:31N 35°28' E 139°41'0 0.0
2014-Oct-20 01:31N 35°28' E 139°41'0 0.0
2014-Oct-20 00:31N 35°28' E 139°41'0 0.0
2014-Oct-19 23:31N 35°28' E 139°41'0 0.0
2014-Oct-19 22:28N 35°28' E 139°41'1 1.6
2014-Oct-19 21:33N 35°27' E 139°43'9 8.6
2014-Oct-19 20:33N 35°19' E 139°44'1110.5
2014-Oct-19 19:34N 35°08' E 139°45'10 9.8
2014-Oct-19 18:33N 34°59' E 139°42'  
2014-Oct-11 06:29N 35°01' E 139°40'1212.6
2014-Oct-11 05:33N 35°12' E 139°46'1212.2
2014-Oct-11 04:33N 35°23' E 139°42'5 4.7
2014-Oct-11 03:31N 35°28' E 139°41'0 0.0
2014-Oct-11 02:31N 35°28' E 139°41'0 0.0
2014-Oct-11 01:31N 35°28' E 139°41'0 0.0
2014-Oct-11 00:31N 35°28' E 139°41'0 0.0
2014-Oct-10 23:31N 35°28' E 139°41'0 0.2
2014-Oct-10 22:33N 35°28' E 139°41'7 6.8
2014-Oct-10 21:33N 35°22' E 139°45'1211.8
2014-Oct-10 20:33N 35°11' E 139°46'1312.7
2014-Oct-10 19:33N 34°59' E 139°42'  

Dump ship's entire track history